createdAt,value
2023-11-23T00:01:55.823Z,102455.72
2023-11-23T00:06:59.659Z,102445.84
2023-11-23T00:12:03.380Z,102433.13
2023-11-23T00:17:09.430Z,102426.56
2023-11-23T00:22:13.286Z,102424.66
2023-11-23T00:27:17.157Z,102420.19
2023-11-23T00:32:23.635Z,102415.06
2023-11-23T00:37:27.403Z,102420.44
2023-11-23T00:42:31.205Z,102412.84
2023-11-23T00:47:36.249Z,102405.69
2023-11-23T00:52:40.001Z,102404.16
2023-11-23T00:57:43.725Z,102397.19
2023-11-23T01:02:49.093Z,102401.97
2023-11-23T01:07:54.046Z,102405.94
2023-11-23T01:12:58.121Z,102406.84
2023-11-23T01:18:03.377Z,102398.75
2023-11-23T01:23:07.148Z,102381.91
2023-11-23T01:28:10.894Z,102389.25
2023-11-23T01:33:16.789Z,102374.94
2023-11-23T01:38:20.776Z,102380.09
2023-11-23T01:43:24.692Z,102373.03
2023-11-23T01:48:32.215Z,102379.56
2023-11-23T01:53:36.791Z,102369.78
2023-11-23T01:58:40.925Z,102371.94
2023-11-23T02:03:46.785Z,102367.31
2023-11-23T02:08:51.029Z,102370.00
2023-11-23T02:13:55.798Z,102361.00
2023-11-23T02:19:01.159Z,102362.28
2023-11-23T02:24:09.404Z,102368.78
2023-11-23T02:29:13.147Z,102362.88
2023-11-23T02:34:16.872Z,102352.31
2023-11-23T02:39:21.964Z,102352.13
2023-11-23T02:44:25.879Z,102352.25
2023-11-23T02:49:29.582Z,102351.84
2023-11-23T02:54:36.253Z,102346.94
2023-11-23T02:59:39.985Z,102345.75
2023-11-23T03:04:43.732Z,102366.03
2023-11-23T03:09:48.877Z,102353.75
2023-11-23T03:14:52.683Z,102355.81
2023-11-23T03:19:56.472Z,102347.56
2023-11-23T03:25:01.753Z,102349.56
2023-11-23T03:30:07.880Z,102354.09
2023-11-23T03:35:11.844Z,102350.06
2023-11-23T03:40:17.369Z,102354.69
2023-11-23T03:45:22.279Z,102353.13
2023-11-23T03:50:26.304Z,102345.41
2023-11-23T03:55:31.372Z,102332.97
2023-11-23T04:00:35.848Z,102333.09
2023-11-23T04:05:39.608Z,102332.66
2023-11-23T04:10:44.752Z,102327.72
2023-11-23T04:15:48.443Z,102338.31
2023-11-23T04:20:52.189Z,102325.50
2023-11-23T04:25:57.931Z,102327.69
2023-11-23T04:31:01.735Z,102329.84
2023-11-23T04:36:06.181Z,102323.00
2023-11-23T04:41:12.920Z,102310.59
2023-11-23T04:46:17.697Z,102309.25
2023-11-23T04:51:21.448Z,102321.47
2023-11-23T04:56:26.698Z,102322.59
2023-11-23T05:01:30.497Z,102322.03
2023-11-23T05:06:34.283Z,102316.66
2023-11-23T05:11:39.329Z,102321.81
2023-11-23T05:16:43.224Z,102331.59
2023-11-23T05:21:46.948Z,102313.75
2023-11-23T05:26:52.203Z,102313.88
2023-11-23T05:31:55.947Z,102317.25
2023-11-23T05:36:59.693Z,102309.25
2023-11-23T05:42:04.969Z,102316.31
2023-11-23T05:47:08.782Z,102307.69
2023-11-23T05:52:12.754Z,102307.34
2023-11-23T05:57:18.508Z,102319.13
2023-11-23T06:02:22.776Z,102313.19
2023-11-23T06:07:26.551Z,102301.53
2023-11-23T06:12:31.615Z,102301.53
2023-11-23T06:17:35.834Z,102297.28
2023-11-23T06:22:39.755Z,102286.97
2023-11-23T06:27:45.331Z,102292.13
2023-11-23T06:32:49.823Z,102298.06
2023-11-23T06:37:53.988Z,102290.31
2023-11-23T06:42:59.065Z,102284.37
2023-11-23T06:48:02.929Z,102287.72
2023-11-23T06:53:06.913Z,102289.62
2023-11-23T06:58:11.995Z,102272.47
2023-11-23T07:03:15.834Z,102275.97
2023-11-23T07:08:19.570Z,102264.84
2023-11-23T07:13:24.728Z,102261.47
2023-11-23T07:18:28.594Z,102262.62
2023-11-23T07:23:32.991Z,102265.88
2023-11-23T07:28:38.082Z,102252.97
2023-11-23T07:33:41.811Z,102250.72
2023-11-23T07:38:46.110Z,102250.94
2023-11-23T07:43:51.864Z,102251.81
2023-11-23T07:48:55.650Z,102270.91
2023-11-23T07:53:59.403Z,102269.12
2023-11-23T07:59:04.633Z,102260.78
2023-11-23T08:04:08.502Z,102274.03
2023-11-23T08:09:17.012Z,102274.37
2023-11-23T08:14:22.342Z,102254.28
2023-11-23T08:19:26.565Z,102266.63
2023-11-23T08:24:30.457Z,102244.72
2023-11-23T08:29:37.021Z,102252.56
2023-11-23T08:34:42.556Z,102245.94
2023-11-23T08:39:47.993Z,102238.97
2023-11-23T08:44:53.405Z,102226.50
2023-11-23T08:49:57.396Z,102238.53
2023-11-23T08:55:01.726Z,102235.16
2023-11-23T09:00:11.007Z,102206.37
2023-11-23T09:05:14.881Z,102183.66
2023-11-23T09:10:18.918Z,102196.91
2023-11-23T09:15:24.229Z,102194.84
2023-11-23T09:20:28.976Z,102217.03
2023-11-23T09:25:35.208Z,102199.66
2023-11-23T09:30:40.727Z,102185.78
2023-11-23T09:35:44.714Z,102187.78
2023-11-23T09:40:48.493Z,102162.94
2023-11-23T09:45:53.947Z,102161.66
2023-11-23T09:50:58.475Z,102160.00
2023-11-23T09:56:04.938Z,102174.53
2023-11-23T10:01:11.687Z,102160.56
2023-11-23T10:06:15.944Z,102165.63
2023-11-23T10:11:19.963Z,102157.38
2023-11-23T10:16:25.126Z,102169.09
2023-11-23T10:21:30.390Z,102132.00
2023-11-23T10:26:34.315Z,102096.97
2023-11-23T10:31:39.405Z,102127.56
2023-11-23T10:36:43.677Z,102119.22
2023-11-23T10:41:47.643Z,102124.38
2023-11-23T10:46:54.900Z,102116.81
2023-11-23T10:51:58.786Z,102106.03
2023-11-23T10:57:05.685Z,102092.06
2023-11-23T11:02:12.105Z,102092.94
2023-11-23T11:07:15.911Z,102077.94
2023-11-23T11:12:19.828Z,102069.66
2023-11-23T11:17:37.405Z,102055.44
2023-11-23T11:22:41.173Z,102052.59
2023-11-23T11:27:45.030Z,102049.56
2023-11-23T11:32:53.547Z,102042.59
2023-11-23T11:37:58.337Z,102030.34
2023-11-23T11:43:03.289Z,102036.00
2023-11-23T11:48:08.559Z,102033.63
2023-11-23T11:53:12.809Z,102001.00
2023-11-23T11:58:16.552Z,101987.47
2023-11-23T12:03:21.851Z,101974.56
2023-11-23T12:08:33.210Z,101981.47
2023-11-23T12:13:37.387Z,101956.56
2023-11-23T12:18:42.524Z,101958.31
2023-11-23T12:23:47.103Z,101952.19
2023-11-23T12:28:51.661Z,101946.91
2023-11-23T12:33:56.755Z,101922.72
2023-11-23T12:39:00.565Z,101909.78
2023-11-23T12:44:04.921Z,101919.47
2023-11-23T12:49:11.326Z,101909.06
2023-11-23T12:54:16.189Z,101918.69
2023-11-23T12:59:20.134Z,101917.53
2023-11-23T13:04:29.628Z,101889.91
2023-11-23T13:09:34.753Z,101879.94
2023-11-23T13:14:38.709Z,101855.06
2023-11-23T13:19:44.599Z,101854.16
2023-11-23T13:24:48.457Z,101845.03
2023-11-23T13:29:52.269Z,101832.72
2023-11-23T13:34:57.949Z,101805.69
2023-11-23T13:40:04.772Z,101803.47
2023-11-23T13:45:09.588Z,101822.75
2023-11-23T13:50:18.053Z,101820.72
2023-11-23T13:55:21.948Z,101805.69
2023-11-23T14:00:25.757Z,101787.50
2023-11-23T14:05:31.739Z,101785.94
2023-11-23T14:10:36.418Z,101776.66
2023-11-23T14:15:40.681Z,101789.41
2023-11-23T14:20:45.777Z,101789.06
2023-11-23T14:25:49.584Z,101789.53
2023-11-23T14:30:54.330Z,101784.50
2023-11-23T14:35:59.396Z,101760.34
2023-11-23T14:41:03.195Z,101741.25
2023-11-23T14:46:08.556Z,101738.50
2023-11-23T14:51:13.840Z,101741.97
2023-11-23T14:56:17.604Z,101763.56
2023-11-23T15:01:21.596Z,101751.19
2023-11-23T15:06:27.547Z,101747.56
2023-11-23T15:11:31.886Z,101723.28
2023-11-23T15:16:35.654Z,101735.25
2023-11-23T15:21:43.652Z,101713.22
2023-11-23T15:26:47.966Z,101718.41
2023-11-23T15:31:53.430Z,101716.44
2023-11-23T15:36:59.905Z,101703.56
2023-11-23T15:42:04.540Z,101716.84
2023-11-23T15:47:12.034Z,101724.28
2023-11-23T15:52:17.463Z,101738.16
2023-11-23T15:57:21.350Z,101751.16
2023-11-23T16:02:25.288Z,101735.56
2023-11-23T16:07:30.509Z,101724.84
2023-11-23T16:12:34.844Z,101703.88
2023-11-23T16:17:39.644Z,101709.88
2023-11-23T16:22:45.705Z,101717.91
2023-11-23T16:27:49.515Z,101714.59
2023-11-23T16:32:55.588Z,101725.94
2023-11-23T16:38:01.338Z,101707.44
2023-11-23T16:43:05.466Z,101710.31
2023-11-23T16:48:09.345Z,101692.91
2023-11-23T16:53:14.512Z,101682.72
2023-11-23T16:58:18.273Z,101690.69
2023-11-23T17:03:22.141Z,101688.88
2023-11-23T17:08:27.290Z,101674.09
2023-11-23T17:13:31.015Z,101685.31
2023-11-23T17:18:34.807Z,101665.28
2023-11-23T17:23:39.916Z,101660.00
2023-11-23T17:28:44.227Z,101654.97
2023-11-23T17:33:48.633Z,101656.69
2023-11-23T17:38:53.714Z,101656.69
2023-11-23T17:43:57.781Z,101639.41
2023-11-23T17:49:01.675Z,101606.56
2023-11-23T17:54:07.622Z,101639.72
2023-11-23T17:59:25.478Z,101623.31
2023-11-23T18:04:35.072Z,101615.44
2023-11-23T18:09:40.153Z,101604.13
2023-11-23T18:14:44.012Z,101610.47
2023-11-23T18:19:47.752Z,101623.47
2023-11-23T18:24:52.838Z,101620.25
2023-11-23T18:29:56.698Z,101602.87
2023-11-23T18:35:02.109Z,101599.41
2023-11-23T18:40:14.118Z,101598.72
2023-11-23T18:45:18.922Z,101586.69
2023-11-23T18:50:22.752Z,101574.91
2023-11-23T18:55:28.711Z,101577.41
2023-11-23T19:00:33.010Z,101559.53
2023-11-23T19:05:36.844Z,101556.13
2023-11-23T19:10:42.986Z,101547.62
2023-11-23T19:15:46.980Z,101539.72
2023-11-23T19:20:52.679Z,101549.34
2023-11-23T19:25:58.530Z,101528.78
2023-11-23T19:31:06.499Z,101534.78
2023-11-23T19:36:13.615Z,101532.19
2023-11-23T19:41:22.986Z,101518.37
2023-11-23T19:46:29.123Z,101510.66
2023-11-23T19:51:33.320Z,101495.38
2023-11-23T19:56:38.403Z,101501.53
2023-11-23T20:01:43.685Z,101504.84
2023-11-23T20:06:47.825Z,101494.34
2023-11-23T20:11:52.926Z,101503.81
2023-11-23T20:16:56.839Z,101482.03
2023-11-23T20:22:00.576Z,101483.66
2023-11-23T20:27:06.158Z,101485.22
2023-11-23T20:32:10.770Z,101489.66
2023-11-23T20:37:15.173Z,101489.31
2023-11-23T20:42:20.393Z,101478.72
2023-11-23T20:47:24.208Z,101476.06
2023-11-23T20:52:27.945Z,101467.50
2023-11-23T20:57:33.604Z,101464.75
2023-11-23T21:02:38.045Z,101453.09
2023-11-23T21:07:42.423Z,101449.63
2023-11-23T21:12:47.868Z,101429.00
2023-11-23T21:17:51.669Z,101423.84
2023-11-23T21:22:56.243Z,101413.63
2023-11-23T21:28:01.392Z,101406.84
2023-11-23T21:33:06.281Z,101395.84
2023-11-23T21:38:11.382Z,101390.00
2023-11-23T21:43:16.612Z,101391.09
2023-11-23T21:48:21.581Z,101406.81
2023-11-23T21:53:25.689Z,101409.06
2023-11-23T21:58:31.124Z,101414.91
2023-11-23T22:03:34.929Z,101411.03
2023-11-23T22:08:38.718Z,101398.50
2023-11-23T22:13:44.958Z,101387.47
2023-11-23T22:18:49.367Z,101399.69
2023-11-23T22:23:53.567Z,101414.84
2023-11-23T22:28:59.523Z,101402.91
2023-11-23T22:34:04.520Z,101424.91
2023-11-23T22:39:10.263Z,101419.00
2023-11-23T22:44:16.654Z,101424.66
2023-11-23T22:49:20.370Z,101403.63
2023-11-23T22:54:24.247Z,101396.03
2023-11-23T22:59:29.308Z,101417.50
2023-11-23T23:04:34.187Z,101418.88
2023-11-23T23:09:38.264Z,101410.03
2023-11-23T23:14:43.338Z,101401.97
2023-11-23T23:19:47.114Z,101423.44
2023-11-23T23:24:50.837Z,101422.56
2023-11-23T23:29:55.923Z,101423.59
2023-11-23T23:35:01.550Z,101415.75
2023-11-23T23:40:05.978Z,101420.75
2023-11-23T23:45:11.296Z,101421.53
2023-11-23T23:50:15.113Z,101425.25
2023-11-23T23:55:18.826Z,101424.69
